sensor_id;sensor_type;location;lat;lon;timestamp;P1;durP1;ratioP1;P2;durP2;ratioP2
21438;SDS011;10880;50.302;18.736;2023-04-15T00:00:19;5.67;;;3.60;;
21438;SDS011;10880;50.302;18.736;2023-04-15T00:02:52;4.13;;;2.80;;
21438;SDS011;10880;50.302;18.736;2023-04-15T00:05:46;3.87;;;2.90;;
21438;SDS011;10880;50.302;18.736;2023-04-15T00:08:19;3.07;;;2.50;;
21438;SDS011;10880;50.302;18.736;2023-04-15T00:11:13;3.93;;;2.80;;
21438;SDS011;10880;50.302;18.736;2023-04-15T00:13:46;2.50;;;2.30;;
21438;SDS011;10880;50.302;18.736;2023-04-15T00:16:40;2.63;;;2.40;;
21438;SDS011;10880;50.302;18.736;2023-04-15T00:19:13;2.67;;;2.43;;
21438;SDS011;10880;50.302;18.736;2023-04-15T00:22:07;3.03;;;2.73;;
21438;SDS011;10880;50.302;18.736;2023-04-15T00:24:40;2.87;;;2.63;;
21438;SDS011;10880;50.302;18.736;2023-04-15T00:27:33;2.70;;;2.50;;
21438;SDS011;10880;50.302;18.736;2023-04-15T00:30:08;3.27;;;2.70;;
21438;SDS011;10880;50.302;18.736;2023-04-15T00:33:02;5.60;;;3.30;;
21438;SDS011;10880;50.302;18.736;2023-04-15T00:35:34;5.10;;;3.83;;
21438;SDS011;10880;50.302;18.736;2023-04-15T00:38:28;5.33;;;3.30;;
21438;SDS011;10880;50.302;18.736;2023-04-15T00:41:00;4.07;;;3.10;;
21438;SDS011;10880;50.302;18.736;2023-04-15T00:43:55;3.17;;;2.53;;
21438;SDS011;10880;50.302;18.736;2023-04-15T00:46:28;3.87;;;3.07;;
21438;SDS011;10880;50.302;18.736;2023-04-15T00:49:22;4.00;;;3.37;;
21438;SDS011;10880;50.302;18.736;2023-04-15T00:51:56;4.40;;;3.00;;
21438;SDS011;10880;50.302;18.736;2023-04-15T00:54:49;3.73;;;3.20;;
21438;SDS011;10880;50.302;18.736;2023-04-15T00:57:23;4.03;;;3.00;;
21438;SDS011;10880;50.302;18.736;2023-04-15T01:00:17;3.30;;;2.73;;
21438;SDS011;10880;50.302;18.736;2023-04-15T01:02:51;3.30;;;2.53;;
21438;SDS011;10880;50.302;18.736;2023-04-15T01:05:45;3.03;;;2.70;;
21438;SDS011;10880;50.302;18.736;2023-04-15T01:08:18;3.73;;;2.83;;
21438;SDS011;10880;50.302;18.736;2023-04-15T01:11:12;3.17;;;2.73;;
21438;SDS011;10880;50.302;18.736;2023-04-15T01:13:46;2.80;;;2.27;;
21438;SDS011;10880;50.302;18.736;2023-04-15T01:16:40;2.10;;;2.00;;
21438;SDS011;10880;50.302;18.736;2023-04-15T01:19:12;2.57;;;2.30;;
21438;SDS011;10880;50.302;18.736;2023-04-15T01:22:08;2.53;;;2.33;;
21438;SDS011;10880;50.302;18.736;2023-04-15T01:24:43;2.43;;;2.23;;
21438;SDS011;10880;50.302;18.736;2023-04-15T01:27:48;2.30;;;2.10;;
21438;SDS011;10880;50.302;18.736;2023-04-15T01:30:22;2.30;;;2.10;;
21438;SDS011;10880;50.302;18.736;2023-04-15T01:33:15;2.60;;;2.40;;
21438;SDS011;10880;50.302;18.736;2023-04-15T01:36:07;2.57;;;2.37;;
21438;SDS011;10880;50.302;18.736;2023-04-15T01:39:00;2.83;;;2.53;;
21438;SDS011;10880;50.302;18.736;2023-04-15T01:41:36;2.50;;;2.30;;
21438;SDS011;10880;50.302;18.736;2023-04-15T01:44:29;3.37;;;2.70;;
21438;SDS011;10880;50.302;18.736;2023-04-15T01:47:04;2.97;;;2.37;;
21438;SDS011;10880;50.302;18.736;2023-04-15T01:49:58;2.37;;;2.03;;
21438;SDS011;10880;50.302;18.736;2023-04-15T01:52:32;2.67;;;2.30;;
21438;SDS011;10880;50.302;18.736;2023-04-15T01:55:26;2.50;;;2.30;;
21438;SDS011;10880;50.302;18.736;2023-04-15T01:58:00;2.67;;;2.20;;
21438;SDS011;10880;50.302;18.736;2023-04-15T02:00:54;2.77;;;2.30;;
21438;SDS011;10880;50.302;18.736;2023-04-15T02:03:28;2.90;;;2.47;;
21438;SDS011;10880;50.302;18.736;2023-04-15T02:06:21;2.53;;;2.33;;
21438;SDS011;10880;50.302;18.736;2023-04-15T02:08:57;2.33;;;2.13;;
21438;SDS011;10880;50.302;18.736;2023-04-15T02:11:51;2.57;;;2.10;;
21438;SDS011;10880;50.302;18.736;2023-04-15T02:14:27;2.57;;;2.37;;
21438;SDS011;10880;50.302;18.736;2023-04-15T02:17:21;2.40;;;2.20;;
21438;SDS011;10880;50.302;18.736;2023-04-15T02:19:55;2.80;;;2.40;;
21438;SDS011;10880;50.302;18.736;2023-04-15T02:22:51;3.63;;;2.17;;
21438;SDS011;10880;50.302;18.736;2023-04-15T02:25:26;2.90;;;2.20;;
21438;SDS011;10880;50.302;18.736;2023-04-15T02:28:21;2.80;;;2.30;;
21438;SDS011;10880;50.302;18.736;2023-04-15T02:30:55;3.57;;;2.70;;
21438;SDS011;10880;50.302;18.736;2023-04-15T02:33:50;3.83;;;2.70;;
21438;SDS011;10880;50.302;18.736;2023-04-15T02:36:26;2.90;;;2.60;;
21438;SDS011;10880;50.302;18.736;2023-04-15T02:39:20;4.53;;;2.90;;
21438;SDS011;10880;50.302;18.736;2023-04-15T02:41:54;3.27;;;2.90;;
21438;SDS011;10880;50.302;18.736;2023-04-15T02:44:49;2.80;;;2.40;;
21438;SDS011;10880;50.302;18.736;2023-04-15T02:47:27;3.10;;;2.77;;
21438;SDS011;10880;50.302;18.736;2023-04-15T02:50:23;2.47;;;2.27;;
21438;SDS011;10880;50.302;18.736;2023-04-15T02:52:58;3.17;;;2.10;;
21438;SDS011;10880;50.302;18.736;2023-04-15T02:55:52;3.77;;;2.23;;
21438;SDS011;10880;50.302;18.736;2023-04-15T02:58:26;2.73;;;2.47;;
21438;SDS011;10880;50.302;18.736;2023-04-15T03:01:21;3.13;;;2.40;;
21438;SDS011;10880;50.302;18.736;2023-04-15T03:03:55;2.93;;;2.40;;
21438;SDS011;10880;50.302;18.736;2023-04-15T03:06:49;2.43;;;2.23;;
21438;SDS011;10880;50.302;18.736;2023-04-15T03:09:23;2.67;;;2.20;;
21438;SDS011;10880;50.302;18.736;2023-04-15T03:12:17;3.10;;;2.37;;
21438;SDS011;10880;50.302;18.736;2023-04-15T03:14:53;2.80;;;2.60;;
21438;SDS011;10880;50.302;18.736;2023-04-15T03:17:51;2.63;;;2.43;;
21438;SDS011;10880;50.302;18.736;2023-04-15T03:20:25;3.77;;;3.07;;
21438;SDS011;10880;50.302;18.736;2023-04-15T03:23:19;3.83;;;3.10;;
21438;SDS011;10880;50.302;18.736;2023-04-15T03:26:25;3.67;;;3.00;;
21438;SDS011;10880;50.302;18.736;2023-04-15T03:29:10;3.43;;;3.00;;
21438;SDS011;10880;50.302;18.736;2023-04-15T03:32:04;4.93;;;3.53;;
21438;SDS011;10880;50.302;18.736;2023-04-15T03:34:38;4.10;;;3.30;;
21438;SDS011;10880;50.302;18.736;2023-04-15T03:37:33;4.57;;;3.07;;
21438;SDS011;10880;50.302;18.736;2023-04-15T03:40:07;4.47;;;3.20;;
21438;SDS011;10880;50.302;18.736;2023-04-15T03:43:02;4.77;;;3.37;;
21438;SDS011;10880;50.302;18.736;2023-04-15T03:45:36;4.27;;;2.87;;
21438;SDS011;10880;50.302;18.736;2023-04-15T03:48:30;4.77;;;3.57;;
21438;SDS011;10880;50.302;18.736;2023-04-15T03:51:04;4.30;;;3.37;;
21438;SDS011;10880;50.302;18.736;2023-04-15T03:53:58;4.77;;;3.47;;
21438;SDS011;10880;50.302;18.736;2023-04-15T03:56:32;5.27;;;3.90;;
21438;SDS011;10880;50.302;18.736;2023-04-15T03:59:26;5.37;;;3.53;;
21438;SDS011;10880;50.302;18.736;2023-04-15T04:02:00;5.60;;;3.63;;
21438;SDS011;10880;50.302;18.736;2023-04-15T04:04:54;6.30;;;4.20;;
21438;SDS011;10880;50.302;18.736;2023-04-15T04:07:28;5.00;;;3.73;;
21438;SDS011;10880;50.302;18.736;2023-04-15T04:10:22;6.97;;;4.10;;
21438;SDS011;10880;50.302;18.736;2023-04-15T04:12:57;4.70;;;3.43;;
21438;SDS011;10880;50.302;18.736;2023-04-15T04:15:51;3.93;;;3.17;;
21438;SDS011;10880;50.302;18.736;2023-04-15T04:18:25;4.93;;;3.40;;
21438;SDS011;10880;50.302;18.736;2023-04-15T04:21:19;4.63;;;3.33;;
21438;SDS011;10880;50.302;18.736;2023-04-15T04:23:54;5.37;;;3.60;;
21438;SDS011;10880;50.302;18.736;2023-04-15T04:26:49;5.50;;;3.47;;
21438;SDS011;10880;50.302;18.736;2023-04-15T04:29:23;5.23;;;3.50;;
21438;SDS011;10880;50.302;18.736;2023-04-15T04:32:17;6.23;;;4.37;;
21438;SDS011;10880;50.302;18.736;2023-04-15T04:34:51;6.63;;;4.33;;
21438;SDS011;10880;50.302;18.736;2023-04-15T04:37:45;3.50;;;3.20;;
21438;SDS011;10880;50.302;18.736;2023-04-15T04:40:19;4.93;;;3.80;;
21438;SDS011;10880;50.302;18.736;2023-04-15T04:43:13;5.77;;;4.17;;
21438;SDS011;10880;50.302;18.736;2023-04-15T04:45:48;6.00;;;3.90;;
21438;SDS011;10880;50.302;18.736;2023-04-15T04:48:42;4.30;;;3.30;;
21438;SDS011;10880;50.302;18.736;2023-04-15T04:51:16;5.27;;;3.50;;
21438;SDS011;10880;50.302;18.736;2023-04-15T04:54:11;3.50;;;3.13;;
21438;SDS011;10880;50.302;18.736;2023-04-15T04:56:45;3.70;;;3.10;;
21438;SDS011;10880;50.302;18.736;2023-04-15T04:59:39;5.13;;;4.07;;
21438;SDS011;10880;50.302;18.736;2023-04-15T05:02:14;5.20;;;3.30;;
21438;SDS011;10880;50.302;18.736;2023-04-15T05:05:08;8.13;;;4.50;;
21438;SDS011;10880;50.302;18.736;2023-04-15T05:07:43;5.23;;;3.83;;
21438;SDS011;10880;50.302;18.736;2023-04-15T05:10:38;6.20;;;4.27;;
21438;SDS011;10880;50.302;18.736;2023-04-15T05:13:12;6.87;;;4.50;;
21438;SDS011;10880;50.302;18.736;2023-04-15T05:16:07;4.37;;;3.47;;
21438;SDS011;10880;50.302;18.736;2023-04-15T05:18:42;5.50;;;3.20;;
21438;SDS011;10880;50.302;18.736;2023-04-15T05:21:36;3.33;;;3.03;;
21438;SDS011;10880;50.302;18.736;2023-04-15T05:24:16;3.67;;;2.87;;
21438;SDS011;10880;50.302;18.736;2023-04-15T05:27:10;3.00;;;2.70;;
21438;SDS011;10880;50.302;18.736;2023-04-15T05:29:44;4.17;;;2.83;;
21438;SDS011;10880;50.302;18.736;2023-04-15T05:32:39;4.30;;;3.10;;
21438;SDS011;10880;50.302;18.736;2023-04-15T05:35:13;4.00;;;2.83;;
21438;SDS011;10880;50.302;18.736;2023-04-15T05:38:07;3.60;;;2.77;;
21438;SDS011;10880;50.302;18.736;2023-04-15T05:40:41;4.47;;;3.37;;
21438;SDS011;10880;50.302;18.736;2023-04-15T05:43:35;4.53;;;3.07;;
21438;SDS011;10880;50.302;18.736;2023-04-15T05:46:11;6.37;;;3.80;;
21438;SDS011;10880;50.302;18.736;2023-04-15T05:49:06;3.87;;;3.27;;
21438;SDS011;10880;50.302;18.736;2023-04-15T05:51:40;4.90;;;3.43;;
21438;SDS011;10880;50.302;18.736;2023-04-15T05:54:34;4.57;;;3.40;;
21438;SDS011;10880;50.302;18.736;2023-04-15T05:57:10;4.50;;;3.57;;
21438;SDS011;10880;50.302;18.736;2023-04-15T06:00:04;5.27;;;3.40;;
21438;SDS011;10880;50.302;18.736;2023-04-15T06:02:39;4.77;;;3.60;;
21438;SDS011;10880;50.302;18.736;2023-04-15T06:05:33;4.47;;;3.60;;
21438;SDS011;10880;50.302;18.736;2023-04-15T06:08:07;5.10;;;3.67;;
21438;SDS011;10880;50.302;18.736;2023-04-15T06:11:01;4.47;;;3.57;;
21438;SDS011;10880;50.302;18.736;2023-04-15T06:13:35;4.70;;;3.47;;
21438;SDS011;10880;50.302;18.736;2023-04-15T06:16:30;3.50;;;3.03;;
21438;SDS011;10880;50.302;18.736;2023-04-15T06:19:05;3.13;;;2.63;;
21438;SDS011;10880;50.302;18.736;2023-04-15T06:22:00;3.10;;;2.77;;
21438;SDS011;10880;50.302;18.736;2023-04-15T06:24:43;3.30;;;2.80;;
21438;SDS011;10880;50.302;18.736;2023-04-15T06:27:38;3.13;;;2.83;;
21438;SDS011;10880;50.302;18.736;2023-04-15T06:30:14;4.60;;;3.57;;
21438;SDS011;10880;50.302;18.736;2023-04-15T06:33:08;3.60;;;3.00;;
21438;SDS011;10880;50.302;18.736;2023-04-15T06:35:43;4.17;;;3.03;;
21438;SDS011;10880;50.302;18.736;2023-04-15T06:38:37;3.47;;;3.17;;
21438;SDS011;10880;50.302;18.736;2023-04-15T06:41:11;3.67;;;2.87;;
21438;SDS011;10880;50.302;18.736;2023-04-15T06:44:06;2.80;;;2.50;;
21438;SDS011;10880;50.302;18.736;2023-04-15T06:46:40;3.87;;;2.90;;
21438;SDS011;10880;50.302;18.736;2023-04-15T06:49:34;3.20;;;2.73;;
21438;SDS011;10880;50.302;18.736;2023-04-15T06:52:09;3.13;;;2.83;;
21438;SDS011;10880;50.302;18.736;2023-04-15T06:55:03;3.23;;;2.70;;
21438;SDS011;10880;50.302;18.736;2023-04-15T06:57:39;2.60;;;2.40;;
21438;SDS011;10880;50.302;18.736;2023-04-15T07:00:34;2.60;;;2.40;;
21438;SDS011;10880;50.302;18.736;2023-04-15T07:03:10;2.33;;;2.13;;
21438;SDS011;10880;50.302;18.736;2023-04-15T07:06:05;2.70;;;2.50;;
21438;SDS011;10880;50.302;18.736;2023-04-15T07:08:42;2.20;;;2.00;;
21438;SDS011;10880;50.302;18.736;2023-04-15T07:11:37;2.43;;;2.23;;
21438;SDS011;10880;50.302;18.736;2023-04-15T07:14:11;2.33;;;2.13;;
21438;SDS011;10880;50.302;18.736;2023-04-15T07:17:05;2.70;;;2.40;;
21438;SDS011;10880;50.302;18.736;2023-04-15T07:19:41;3.07;;;2.57;;
21438;SDS011;10880;50.302;18.736;2023-04-15T07:22:35;2.43;;;2.23;;
21438;SDS011;10880;50.302;18.736;2023-04-15T07:25:09;2.17;;;1.97;;
21438;SDS011;10880;50.302;18.736;2023-04-15T07:28:05;2.60;;;2.40;;
21438;SDS011;10880;50.302;18.736;2023-04-15T07:30:40;2.43;;;2.23;;
21438;SDS011;10880;50.302;18.736;2023-04-15T07:33:35;2.20;;;2.10;;
21438;SDS011;10880;50.302;18.736;2023-04-15T07:36:14;2.83;;;2.20;;
21438;SDS011;10880;50.302;18.736;2023-04-15T07:39:12;2.47;;;2.27;;
21438;SDS011;10880;50.302;18.736;2023-04-15T07:41:46;2.60;;;2.33;;
21438;SDS011;10880;50.302;18.736;2023-04-15T07:44:42;2.47;;;2.27;;
21438;SDS011;10880;50.302;18.736;2023-04-15T07:47:16;2.40;;;2.20;;
21438;SDS011;10880;50.302;18.736;2023-04-15T07:50:12;2.30;;;2.10;;
21438;SDS011;10880;50.302;18.736;2023-04-15T07:52:50;2.40;;;2.20;;
21438;SDS011;10880;50.302;18.736;2023-04-15T07:55:44;2.83;;;2.03;;
21438;SDS011;10880;50.302;18.736;2023-04-15T07:58:21;2.73;;;2.30;;
21438;SDS011;10880;50.302;18.736;2023-04-15T08:01:17;2.40;;;2.20;;
21438;SDS011;10880;50.302;18.736;2023-04-15T08:04:00;2.70;;;2.30;;
21438;SDS011;10880;50.302;18.736;2023-04-15T08:06:58;2.30;;;2.10;;
21438;SDS011;10880;50.302;18.736;2023-04-15T08:09:33;2.17;;;2.07;;
21438;SDS011;10880;50.302;18.736;2023-04-15T08:12:28;2.70;;;2.33;;
21438;SDS011;10880;50.302;18.736;2023-04-15T08:15:03;2.67;;;2.33;;
21438;SDS011;10880;50.302;18.736;2023-04-15T08:18:01;2.60;;;2.40;;
21438;SDS011;10880;50.302;18.736;2023-04-15T08:20:41;3.57;;;2.57;;
21438;SDS011;10880;50.302;18.736;2023-04-15T08:23:38;2.90;;;2.60;;
21438;SDS011;10880;50.302;18.736;2023-04-15T08:29:59;2.57;;;2.37;;
21438;SDS011;10880;50.302;18.736;2023-04-15T08:32:33;2.53;;;2.20;;
21438;SDS011;10880;50.302;18.736;2023-04-15T08:35:28;2.33;;;2.10;;
21438;SDS011;10880;50.302;18.736;2023-04-15T08:38:02;2.07;;;1.90;;
21438;SDS011;10880;50.302;18.736;2023-04-15T08:40:56;2.40;;;2.20;;
21438;SDS011;10880;50.302;18.736;2023-04-15T08:43:33;2.60;;;2.40;;
21438;SDS011;10880;50.302;18.736;2023-04-15T08:46:30;2.93;;;2.60;;
21438;SDS011;10880;50.302;18.736;2023-04-15T08:49:13;2.87;;;2.60;;
21438;SDS011;10880;50.302;18.736;2023-04-15T08:52:08;2.13;;;1.93;;
21438;SDS011;10880;50.302;18.736;2023-04-15T08:54:43;1.97;;;1.87;;
21438;SDS011;10880;50.302;18.736;2023-04-15T08:57:38;2.40;;;2.20;;
21438;SDS011;10880;50.302;18.736;2023-04-15T09:00:12;2.47;;;2.10;;
21438;SDS011;10880;50.302;18.736;2023-04-15T09:03:07;1.87;;;1.77;;
21438;SDS011;10880;50.302;18.736;2023-04-15T09:05:42;2.07;;;1.80;;
21438;SDS011;10880;50.302;18.736;2023-04-15T09:08:37;2.10;;;2.00;;
21438;SDS011;10880;50.302;18.736;2023-04-15T09:11:11;1.90;;;1.80;;
21438;SDS011;10880;50.302;18.736;2023-04-15T09:14:05;2.87;;;2.00;;
21438;SDS011;10880;50.302;18.736;2023-04-15T09:16:58;3.13;;;2.43;;
21438;SDS011;10880;50.302;18.736;2023-04-15T09:20:09;2.47;;;2.27;;
21438;SDS011;10880;50.302;18.736;2023-04-15T09:22:46;2.40;;;2.20;;
21438;SDS011;10880;50.302;18.736;2023-04-15T09:25:41;1.90;;;1.70;;
21438;SDS011;10880;50.302;18.736;2023-04-15T09:28:42;1.97;;;1.80;;
21438;SDS011;10880;50.302;18.736;2023-04-15T09:31:16;1.87;;;1.77;;
21438;SDS011;10880;50.302;18.736;2023-04-15T09:34:22;2.70;;;1.90;;
21438;SDS011;10880;50.302;18.736;2023-04-15T09:37:09;2.10;;;2.00;;
21438;SDS011;10880;50.302;18.736;2023-04-15T09:40:06;1.67;;;1.57;;
21438;SDS011;10880;50.302;18.736;2023-04-15T09:42:52;1.60;;;1.50;;
21438;SDS011;10880;50.302;18.736;2023-04-15T09:45:49;1.70;;;1.60;;
21438;SDS011;10880;50.302;18.736;2023-04-15T09:48:25;1.50;;;1.40;;
21438;SDS011;10880;50.302;18.736;2023-04-15T09:51:31;1.50;;;1.40;;
21438;SDS011;10880;50.302;18.736;2023-04-15T09:54:10;1.60;;;1.50;;
21438;SDS011;10880;50.302;18.736;2023-04-15T09:57:06;1.60;;;1.50;;
21438;SDS011;10880;50.302;18.736;2023-04-15T09:59:42;1.70;;;1.60;;
21438;SDS011;10880;50.302;18.736;2023-04-15T10:02:36;2.87;;;2.20;;
21438;SDS011;10880;50.302;18.736;2023-04-15T10:05:22;2.10;;;1.90;;
21438;SDS011;10880;50.302;18.736;2023-04-15T10:08:22;1.93;;;1.80;;
21438;SDS011;10880;50.302;18.736;2023-04-15T10:10:57;4.23;;;3.20;;
21438;SDS011;10880;50.302;18.736;2023-04-15T10:13:52;3.23;;;2.83;;
21438;SDS011;10880;50.302;18.736;2023-04-15T10:16:27;2.47;;;2.27;;
21438;SDS011;10880;50.302;18.736;2023-04-15T10:19:25;1.83;;;1.73;;
21438;SDS011;10880;50.302;18.736;2023-04-15T10:22:13;1.80;;;1.70;;
21438;SDS011;10880;50.302;18.736;2023-04-15T10:25:09;1.50;;;1.40;;
21438;SDS011;10880;50.302;18.736;2023-04-15T10:27:44;1.47;;;1.40;;
21438;SDS011;10880;50.302;18.736;2023-04-15T10:30:41;1.70;;;1.40;;
21438;SDS011;10880;50.302;18.736;2023-04-15T10:33:17;1.80;;;1.70;;
21438;SDS011;10880;50.302;18.736;2023-04-15T10:36:15;2.20;;;2.10;;
21438;SDS011;10880;50.302;18.736;2023-04-15T10:38:52;2.40;;;1.80;;
21438;SDS011;10880;50.302;18.736;2023-04-15T10:41:46;1.70;;;1.60;;
21438;SDS011;10880;50.302;18.736;2023-04-15T10:44:49;1.60;;;1.50;;
21438;SDS011;10880;50.302;18.736;2023-04-15T10:47:45;1.90;;;1.80;;
21438;SDS011;10880;50.302;18.736;2023-04-15T10:50:24;1.67;;;1.57;;
21438;SDS011;10880;50.302;18.736;2023-04-15T10:53:28;1.60;;;1.50;;
21438;SDS011;10880;50.302;18.736;2023-04-15T10:56:11;1.63;;;1.53;;
21438;SDS011;10880;50.302;18.736;2023-04-15T10:59:07;1.70;;;1.60;;
21438;SDS011;10880;50.302;18.736;2023-04-15T11:01:55;1.70;;;1.60;;
21438;SDS011;10880;50.302;18.736;2023-04-15T11:04:54;2.23;;;2.03;;
21438;SDS011;10880;50.302;18.736;2023-04-15T11:13:15;2.00;;;1.90;;
21438;SDS011;10880;50.302;18.736;2023-04-15T11:16:18;1.90;;;1.80;;
21438;SDS011;10880;50.302;18.736;2023-04-15T11:18:53;1.77;;;1.67;;
21438;SDS011;10880;50.302;18.736;2023-04-15T11:21:49;1.60;;;1.50;;
21438;SDS011;10880;50.302;18.736;2023-04-15T11:24:24;1.50;;;1.40;;
21438;SDS011;10880;50.302;18.736;2023-04-15T11:27:20;1.60;;;1.50;;
21438;SDS011;10880;50.302;18.736;2023-04-15T11:29:55;1.40;;;1.30;;
21438;SDS011;10880;50.302;18.736;2023-04-15T11:32:49;1.60;;;1.50;;
21438;SDS011;10880;50.302;18.736;2023-04-15T11:35:24;1.60;;;1.50;;
21438;SDS011;10880;50.302;18.736;2023-04-15T11:38:20;1.70;;;1.60;;
21438;SDS011;10880;50.302;18.736;2023-04-15T11:40:58;1.30;;;1.30;;
21438;SDS011;10880;50.302;18.736;2023-04-15T11:43:53;1.50;;;1.40;;
21438;SDS011;10880;50.302;18.736;2023-04-15T11:46:29;1.83;;;1.70;;
21438;SDS011;10880;50.302;18.736;2023-04-15T11:49:27;1.30;;;1.30;;
21438;SDS011;10880;50.302;18.736;2023-04-15T11:52:09;1.40;;;1.30;;
21438;SDS011;10880;50.302;18.736;2023-04-15T11:55:02;1.40;;;1.40;;
21438;SDS011;10880;50.302;18.736;2023-04-15T11:57:36;1.60;;;1.50;;
21438;SDS011;10880;50.302;18.736;2023-04-15T12:00:29;1.70;;;1.60;;
21438;SDS011;10880;50.302;18.736;2023-04-15T12:03:24;2.10;;;1.87;;
21438;SDS011;10880;50.302;18.736;2023-04-15T12:06:36;1.70;;;1.60;;
21438;SDS011;10880;50.302;18.736;2023-04-15T12:09:10;1.70;;;1.60;;
21438;SDS011;10880;50.302;18.736;2023-04-15T12:12:05;1.73;;;1.63;;
21438;SDS011;10880;50.302;18.736;2023-04-15T12:14:38;1.53;;;1.43;;
21438;SDS011;10880;50.302;18.736;2023-04-15T12:17:32;1.50;;;1.40;;
21438;SDS011;10880;50.302;18.736;2023-04-15T12:20:06;2.53;;;1.63;;
21438;SDS011;10880;50.302;18.736;2023-04-15T12:26:09;1.73;;;1.57;;
21438;SDS011;10880;50.302;18.736;2023-04-15T12:29:11;1.60;;;1.47;;
21438;SDS011;10880;50.302;18.736;2023-04-15T12:31:48;1.67;;;1.57;;
21438;SDS011;10880;50.302;18.736;2023-04-15T12:34:45;1.90;;;1.70;;
21438;SDS011;10880;50.302;18.736;2023-04-15T12:37:22;1.60;;;1.50;;
21438;SDS011;10880;50.302;18.736;2023-04-15T12:40:15;1.70;;;1.60;;
21438;SDS011;10880;50.302;18.736;2023-04-15T12:42:58;1.50;;;1.40;;
21438;SDS011;10880;50.302;18.736;2023-04-15T12:45:51;1.90;;;1.80;;
21438;SDS011;10880;50.302;18.736;2023-04-15T12:48:24;1.77;;;1.67;;
21438;SDS011;10880;50.302;18.736;2023-04-15T12:51:17;1.70;;;1.60;;
21438;SDS011;10880;50.302;18.736;2023-04-15T12:53:52;1.70;;;1.60;;
21438;SDS011;10880;50.302;18.736;2023-04-15T12:56:45;1.80;;;1.70;;
21438;SDS011;10880;50.302;18.736;2023-04-15T12:59:20;1.63;;;1.53;;
21438;SDS011;10880;50.302;18.736;2023-04-15T13:02:13;1.80;;;1.70;;
21438;SDS011;10880;50.302;18.736;2023-04-15T13:04:47;2.07;;;1.90;;
21438;SDS011;10880;50.302;18.736;2023-04-15T13:07:40;1.90;;;1.80;;
21438;SDS011;10880;50.302;18.736;2023-04-15T13:10:14;2.77;;;1.70;;
21438;SDS011;10880;50.302;18.736;2023-04-15T13:13:07;1.90;;;1.80;;
21438;SDS011;10880;50.302;18.736;2023-04-15T13:15:42;1.70;;;1.60;;
21438;SDS011;10880;50.302;18.736;2023-04-15T13:18:35;1.90;;;1.80;;
21438;SDS011;10880;50.302;18.736;2023-04-15T13:21:08;1.70;;;1.60;;
21438;SDS011;10880;50.302;18.736;2023-04-15T13:24:01;1.77;;;1.67;;
21438;SDS011;10880;50.302;18.736;2023-04-15T13:26:35;2.00;;;1.83;;
21438;SDS011;10880;50.302;18.736;2023-04-15T13:29:28;1.90;;;1.73;;
21438;SDS011;10880;50.302;18.736;2023-04-15T13:32:01;2.37;;;2.20;;
21438;SDS011;10880;50.302;18.736;2023-04-15T13:34:55;1.97;;;1.80;;
21438;SDS011;10880;50.302;18.736;2023-04-15T13:37:40;2.23;;;2.03;;
21438;SDS011;10880;50.302;18.736;2023-04-15T13:40:33;2.00;;;1.80;;
21438;SDS011;10880;50.302;18.736;2023-04-15T13:43:06;1.80;;;1.70;;
21438;SDS011;10880;50.302;18.736;2023-04-15T13:45:59;1.70;;;1.60;;
21438;SDS011;10880;50.302;18.736;2023-04-15T13:48:37;2.30;;;2.10;;
21438;SDS011;10880;50.302;18.736;2023-04-15T13:51:30;1.87;;;1.70;;
21438;SDS011;10880;50.302;18.736;2023-04-15T13:54:04;2.23;;;2.03;;
21438;SDS011;10880;50.302;18.736;2023-04-15T13:56:57;2.10;;;1.90;;
21438;SDS011;10880;50.302;18.736;2023-04-15T13:59:30;2.30;;;2.10;;
21438;SDS011;10880;50.302;18.736;2023-04-15T14:02:24;2.20;;;2.00;;
21438;SDS011;10880;50.302;18.736;2023-04-15T14:04:57;1.93;;;1.80;;
21438;SDS011;10880;50.302;18.736;2023-04-15T14:07:50;2.10;;;2.00;;
21438;SDS011;10880;50.302;18.736;2023-04-15T14:10:23;2.73;;;2.03;;
21438;SDS011;10880;50.302;18.736;2023-04-15T14:13:16;3.77;;;2.87;;
21438;SDS011;10880;50.302;18.736;2023-04-15T14:15:51;4.87;;;3.27;;
21438;SDS011;10880;50.302;18.736;2023-04-15T14:18:44;4.10;;;2.77;;
21438;SDS011;10880;50.302;18.736;2023-04-15T14:21:17;4.83;;;3.40;;
21438;SDS011;10880;50.302;18.736;2023-04-15T14:24:10;2.93;;;2.40;;
21438;SDS011;10880;50.302;18.736;2023-04-15T14:26:44;3.83;;;3.10;;
21438;SDS011;10880;50.302;18.736;2023-04-15T14:29:37;3.77;;;3.03;;
21438;SDS011;10880;50.302;18.736;2023-04-15T14:32:10;5.40;;;3.20;;
21438;SDS011;10880;50.302;18.736;2023-04-15T14:35:03;4.03;;;3.07;;
21438;SDS011;10880;50.302;18.736;2023-04-15T14:37:37;3.10;;;2.50;;
21438;SDS011;10880;50.302;18.736;2023-04-15T14:40:30;3.00;;;2.70;;
21438;SDS011;10880;50.302;18.736;2023-04-15T14:43:05;2.37;;;2.17;;
21438;SDS011;10880;50.302;18.736;2023-04-15T14:45:58;2.20;;;2.00;;
21438;SDS011;10880;50.302;18.736;2023-04-15T14:48:31;1.97;;;1.87;;
21438;SDS011;10880;50.302;18.736;2023-04-15T14:51:24;2.20;;;2.00;;
21438;SDS011;10880;50.302;18.736;2023-04-15T14:54:00;2.60;;;2.20;;
21438;SDS011;10880;50.302;18.736;2023-04-15T14:56:53;3.17;;;2.33;;
21438;SDS011;10880;50.302;18.736;2023-04-15T14:59:27;2.93;;;2.37;;
21438;SDS011;10880;50.302;18.736;2023-04-15T15:02:20;4.10;;;2.67;;
21438;SDS011;10880;50.302;18.736;2023-04-15T15:04:53;7.00;;;3.23;;
21438;SDS011;10880;50.302;18.736;2023-04-15T15:07:46;7.77;;;4.23;;
21438;SDS011;10880;50.302;18.736;2023-04-15T15:10:22;4.70;;;3.40;;
21438;SDS011;10880;50.302;18.736;2023-04-15T15:13:15;5.40;;;3.33;;
21438;SDS011;10880;50.302;18.736;2023-04-15T15:15:50;3.77;;;3.20;;
21438;SDS011;10880;50.302;18.736;2023-04-15T15:18:43;3.07;;;2.60;;
21438;SDS011;10880;50.302;18.736;2023-04-15T15:21:17;3.50;;;2.90;;
21438;SDS011;10880;50.302;18.736;2023-04-15T15:24:12;3.40;;;2.80;;
21438;SDS011;10880;50.302;18.736;2023-04-15T15:26:52;2.97;;;2.50;;
21438;SDS011;10880;50.302;18.736;2023-04-15T15:29:45;2.70;;;2.50;;
21438;SDS011;10880;50.302;18.736;2023-04-15T15:32:22;2.13;;;2.00;;
21438;SDS011;10880;50.302;18.736;2023-04-15T15:35:15;2.63;;;2.30;;
21438;SDS011;10880;50.302;18.736;2023-04-15T15:37:51;3.80;;;2.10;;
21438;SDS011;10880;50.302;18.736;2023-04-15T15:40:44;2.50;;;2.30;;
21438;SDS011;10880;50.302;18.736;2023-04-15T15:43:28;3.67;;;2.57;;
21438;SDS011;10880;50.302;18.736;2023-04-15T15:46:27;2.87;;;2.40;;
21438;SDS011;10880;50.302;18.736;2023-04-15T15:49:02;3.20;;;2.40;;
21438;SDS011;10880;50.302;18.736;2023-04-15T15:51:55;2.80;;;2.50;;
21438;SDS011;10880;50.302;18.736;2023-04-15T15:54:31;2.93;;;2.60;;
21438;SDS011;10880;50.302;18.736;2023-04-15T15:57:25;2.50;;;2.20;;
21438;SDS011;10880;50.302;18.736;2023-04-15T15:59:58;2.60;;;2.40;;
21438;SDS011;10880;50.302;18.736;2023-04-15T16:02:56;2.33;;;2.13;;
21438;SDS011;10880;50.302;18.736;2023-04-15T16:05:29;2.27;;;2.07;;
21438;SDS011;10880;50.302;18.736;2023-04-15T16:08:22;2.30;;;2.10;;
21438;SDS011;10880;50.302;18.736;2023-04-15T16:10:55;2.63;;;2.10;;
21438;SDS011;10880;50.302;18.736;2023-04-15T16:13:48;2.60;;;2.40;;
21438;SDS011;10880;50.302;18.736;2023-04-15T16:16:21;3.10;;;2.67;;
21438;SDS011;10880;50.302;18.736;2023-04-15T16:19:14;3.97;;;2.90;;
21438;SDS011;10880;50.302;18.736;2023-04-15T16:21:47;3.63;;;2.80;;
21438;SDS011;10880;50.302;18.736;2023-04-15T16:24:40;2.90;;;2.70;;
21438;SDS011;10880;50.302;18.736;2023-04-15T16:27:15;2.67;;;2.27;;
21438;SDS011;10880;50.302;18.736;2023-04-15T16:30:11;2.33;;;2.13;;
21438;SDS011;10880;50.302;18.736;2023-04-15T16:32:50;3.27;;;2.50;;